sensor_id;sensor_type;location;lat;lon;timestamp;P1;durP1;ratioP1;P2;durP2;ratioP2
76098;SDS011;64828;49.956;8.636;2023-02-26T00:00:13;4.32;;;2.20;;
76098;SDS011;64828;49.956;8.636;2023-02-26T00:00:30;5.53;;;2.63;;
76098;SDS011;64828;49.956;8.636;2023-02-26T00:00:45;4.50;;;2.20;;
76098;SDS011;64828;49.956;8.636;2023-02-26T00:01:01;4.20;;;1.92;;
76098;SDS011;64828;49.956;8.636;2023-02-26T00:01:26;3.47;;;2.10;;
76098;SDS011;64828;49.956;8.636;2023-02-26T00:01:45;2.70;;;2.05;;
76098;SDS011;64828;49.956;8.636;2023-02-26T00:02:03;2.65;;;1.80;;
76098;SDS011;64828;49.956;8.636;2023-02-26T00:02:19;2.47;;;1.70;;
76098;SDS011;64828;49.956;8.636;2023-02-26T00:02:35;3.13;;;1.90;;
76098;SDS011;64828;49.956;8.636;2023-02-26T00:02:50;2.87;;;1.90;;
76098;SDS011;64828;49.956;8.636;2023-02-26T00:03:06;3.45;;;2.10;;
76098;SDS011;64828;49.956;8.636;2023-02-26T00:03:21;3.63;;;2.10;;
76098;SDS011;64828;49.956;8.636;2023-02-26T00:03:37;2.92;;;1.73;;
76098;SDS011;64828;49.956;8.636;2023-02-26T00:03:55;3.40;;;1.75;;
76098;SDS011;64828;49.956;8.636;2023-02-26T00:04:13;5.45;;;2.00;;
76098;SDS011;64828;49.956;8.636;2023-02-26T00:04:28;4.60;;;2.20;;
76098;SDS011;64828;49.956;8.636;2023-02-26T00:04:44;3.60;;;2.10;;
76098;SDS011;64828;49.956;8.636;2023-02-26T00:05:00;3.38;;;2.00;;
76098;SDS011;64828;49.956;8.636;2023-02-26T00:05:15;3.53;;;2.00;;
76098;SDS011;64828;49.956;8.636;2023-02-26T00:05:31;2.75;;;1.80;;
76098;SDS011;64828;49.956;8.636;2023-02-26T00:05:47;3.75;;;2.00;;
76098;SDS011;64828;49.956;8.636;2023-02-26T00:06:02;5.03;;;2.20;;
76098;SDS011;64828;49.956;8.636;2023-02-26T00:06:18;5.20;;;2.28;;
76098;SDS011;64828;49.956;8.636;2023-02-26T00:06:35;5.18;;;2.33;;
76098;SDS011;64828;49.956;8.636;2023-02-26T00:06:53;3.78;;;2.20;;
76098;SDS011;64828;49.956;8.636;2023-02-26T00:07:09;4.20;;;2.22;;
76098;SDS011;64828;49.956;8.636;2023-02-26T00:07:24;5.70;;;2.03;;
76098;SDS011;64828;49.956;8.636;2023-02-26T00:07:43;5.43;;;2.17;;
76098;SDS011;64828;49.956;8.636;2023-02-26T00:07:58;4.60;;;2.13;;
76098;SDS011;64828;49.956;8.636;2023-02-26T00:08:14;4.07;;;2.03;;
76098;SDS011;64828;49.956;8.636;2023-02-26T00:08:30;3.40;;;2.00;;
76098;SDS011;64828;49.956;8.636;2023-02-26T00:08:45;4.33;;;2.20;;
76098;SDS011;64828;49.956;8.636;2023-02-26T00:09:02;3.55;;;2.00;;
76098;SDS011;64828;49.956;8.636;2023-02-26T00:09:19;4.05;;;2.00;;
76098;SDS011;64828;49.956;8.636;2023-02-26T00:09:36;5.40;;;2.15;;
76098;SDS011;64828;49.956;8.636;2023-02-26T00:09:52;4.20;;;1.90;;
76098;SDS011;64828;49.956;8.636;2023-02-26T00:10:09;4.07;;;1.90;;
76098;SDS011;64828;49.956;8.636;2023-02-26T00:10:27;3.50;;;2.10;;
76098;SDS011;64828;49.956;8.636;2023-02-26T00:10:42;3.57;;;2.00;;
76098;SDS011;64828;49.956;8.636;2023-02-26T00:10:58;3.57;;;1.83;;
76098;SDS011;64828;49.956;8.636;2023-02-26T00:11:15;4.78;;;2.00;;
76098;SDS011;64828;49.956;8.636;2023-02-26T00:11:32;5.15;;;2.10;;
76098;SDS011;64828;49.956;8.636;2023-02-26T00:11:48;4.45;;;1.95;;
76098;SDS011;64828;49.956;8.636;2023-02-26T00:12:04;4.50;;;1.95;;
76098;SDS011;64828;49.956;8.636;2023-02-26T00:12:20;4.00;;;1.90;;
76098;SDS011;64828;49.956;8.636;2023-02-26T00:12:36;3.08;;;1.80;;
76098;SDS011;64828;49.956;8.636;2023-02-26T00:12:52;3.67;;;2.10;;
76098;SDS011;64828;49.956;8.636;2023-02-26T00:13:09;3.42;;;2.20;;
76098;SDS011;64828;49.956;8.636;2023-02-26T00:13:25;3.58;;;2.10;;
76098;SDS011;64828;49.956;8.636;2023-02-26T00:13:43;3.60;;;2.10;;
76098;SDS011;64828;49.956;8.636;2023-02-26T00:14:00;3.08;;;1.90;;
76098;SDS011;64828;49.956;8.636;2023-02-26T00:14:16;3.03;;;1.85;;
76098;SDS011;64828;49.956;8.636;2023-02-26T00:14:32;3.10;;;1.88;;
76098;SDS011;64828;49.956;8.636;2023-02-26T00:14:48;3.50;;;1.80;;
76098;SDS011;64828;49.956;8.636;2023-02-26T00:15:04;4.07;;;1.90;;
76098;SDS011;64828;49.956;8.636;2023-02-26T00:15:22;3.90;;;2.00;;
76098;SDS011;64828;49.956;8.636;2023-02-26T00:15:38;3.90;;;2.00;;
76098;SDS011;64828;49.956;8.636;2023-02-26T00:15:57;5.35;;;2.10;;
76098;SDS011;64828;49.956;8.636;2023-02-26T00:16:28;4.45;;;2.20;;
76098;SDS011;64828;49.956;8.636;2023-02-26T00:16:53;4.65;;;1.98;;
76098;SDS011;64828;49.956;8.636;2023-02-26T00:17:31;4.60;;;2.00;;
76098;SDS011;64828;49.956;8.636;2023-02-26T00:17:58;4.32;;;1.90;;
76098;SDS011;64828;49.956;8.636;2023-02-26T00:18:21;4.90;;;1.92;;
76098;SDS011;64828;49.956;8.636;2023-02-26T00:18:37;3.37;;;1.73;;
76098;SDS011;64828;49.956;8.636;2023-02-26T00:18:54;3.40;;;1.83;;
76098;SDS011;64828;49.956;8.636;2023-02-26T00:19:12;4.05;;;2.03;;
76098;SDS011;64828;49.956;8.636;2023-02-26T00:19:29;3.97;;;2.03;;
76098;SDS011;64828;49.956;8.636;2023-02-26T00:19:44;3.75;;;2.00;;
76098;SDS011;64828;49.956;8.636;2023-02-26T00:20:00;3.97;;;2.15;;
76098;SDS011;64828;49.956;8.636;2023-02-26T00:20:17;4.03;;;2.13;;
76098;SDS011;64828;49.956;8.636;2023-02-26T00:20:34;3.97;;;1.92;;
76098;SDS011;64828;49.956;8.636;2023-02-26T00:20:51;3.15;;;1.92;;
76098;SDS011;64828;49.956;8.636;2023-02-26T00:21:07;3.60;;;1.98;;
76098;SDS011;64828;49.956;8.636;2023-02-26T00:21:34;4.50;;;2.50;;
76098;SDS011;64828;49.956;8.636;2023-02-26T00:21:52;4.53;;;2.30;;
76098;SDS011;64828;49.956;8.636;2023-02-26T00:22:08;4.05;;;2.10;;
76098;SDS011;64828;49.956;8.636;2023-02-26T00:22:24;4.10;;;2.13;;
76098;SDS011;64828;49.956;8.636;2023-02-26T00:22:40;3.63;;;2.10;;
76098;SDS011;64828;49.956;8.636;2023-02-26T00:22:57;3.80;;;2.00;;
76098;SDS011;64828;49.956;8.636;2023-02-26T00:23:13;4.60;;;2.22;;
76098;SDS011;64828;49.956;8.636;2023-02-26T00:23:29;3.97;;;2.30;;
76098;SDS011;64828;49.956;8.636;2023-02-26T00:23:44;4.28;;;2.00;;
76098;SDS011;64828;49.956;8.636;2023-02-26T00:24:01;4.50;;;1.85;;
76098;SDS011;64828;49.956;8.636;2023-02-26T00:24:17;4.63;;;1.98;;
76098;SDS011;64828;49.956;8.636;2023-02-26T00:24:33;2.97;;;2.00;;
76098;SDS011;64828;49.956;8.636;2023-02-26T00:24:48;2.97;;;2.08;;
76098;SDS011;64828;49.956;8.636;2023-02-26T00:25:04;4.20;;;2.10;;
76098;SDS011;64828;49.956;8.636;2023-02-26T00:25:20;5.00;;;2.10;;
76098;SDS011;64828;49.956;8.636;2023-02-26T00:25:36;4.28;;;2.15;;
76098;SDS011;64828;49.956;8.636;2023-02-26T00:25:51;4.73;;;2.40;;
76098;SDS011;64828;49.956;8.636;2023-02-26T00:26:07;4.90;;;2.30;;
76098;SDS011;64828;49.956;8.636;2023-02-26T00:26:24;4.70;;;2.10;;
76098;SDS011;64828;49.956;8.636;2023-02-26T00:26:40;4.95;;;2.00;;
76098;SDS011;64828;49.956;8.636;2023-02-26T00:26:56;4.27;;;1.90;;
76098;SDS011;64828;49.956;8.636;2023-02-26T00:27:12;4.03;;;2.13;;
76098;SDS011;64828;49.956;8.636;2023-02-26T00:27:28;3.42;;;2.20;;
76098;SDS011;64828;49.956;8.636;2023-02-26T00:27:44;3.28;;;2.10;;
76098;SDS011;64828;49.956;8.636;2023-02-26T00:28:00;3.45;;;2.05;;
76098;SDS011;64828;49.956;8.636;2023-02-26T00:28:16;2.72;;;1.90;;
76098;SDS011;64828;49.956;8.636;2023-02-26T00:28:32;2.55;;;2.05;;
76098;SDS011;64828;49.956;8.636;2023-02-26T00:28:48;4.80;;;2.15;;
76098;SDS011;64828;49.956;8.636;2023-02-26T00:29:04;5.78;;;2.40;;
76098;SDS011;64828;49.956;8.636;2023-02-26T00:29:20;4.78;;;2.28;;
76098;SDS011;64828;49.956;8.636;2023-02-26T00:29:37;6.63;;;2.20;;
76098;SDS011;64828;49.956;8.636;2023-02-26T00:29:53;6.88;;;2.20;;
76098;SDS011;64828;49.956;8.636;2023-02-26T00:30:09;6.05;;;2.22;;
76098;SDS011;64828;49.956;8.636;2023-02-26T00:30:25;5.78;;;2.40;;
76098;SDS011;64828;49.956;8.636;2023-02-26T00:30:41;4.22;;;2.05;;
76098;SDS011;64828;49.956;8.636;2023-02-26T00:30:57;3.33;;;2.00;;
76098;SDS011;64828;49.956;8.636;2023-02-26T00:31:13;3.45;;;2.05;;
76098;SDS011;64828;49.956;8.636;2023-02-26T00:31:31;4.13;;;2.38;;
76098;SDS011;64828;49.956;8.636;2023-02-26T00:31:47;3.97;;;2.10;;
76098;SDS011;64828;49.956;8.636;2023-02-26T00:32:03;4.32;;;2.20;;
76098;SDS011;64828;49.956;8.636;2023-02-26T00:32:19;5.38;;;2.30;;
76098;SDS011;64828;49.956;8.636;2023-02-26T00:32:36;5.47;;;2.17;;
76098;SDS011;64828;49.956;8.636;2023-02-26T00:32:53;4.95;;;2.20;;
76098;SDS011;64828;49.956;8.636;2023-02-26T00:33:09;4.78;;;2.42;;
76098;SDS011;64828;49.956;8.636;2023-02-26T00:33:25;5.75;;;2.55;;
76098;SDS011;64828;49.956;8.636;2023-02-26T00:33:41;5.97;;;2.70;;
76098;SDS011;64828;49.956;8.636;2023-02-26T00:33:58;4.78;;;2.75;;
76098;SDS011;64828;49.956;8.636;2023-02-26T00:34:14;4.57;;;2.60;;
76098;SDS011;64828;49.956;8.636;2023-02-26T00:34:30;6.20;;;2.95;;
76098;SDS011;64828;49.956;8.636;2023-02-26T00:34:46;5.43;;;2.83;;
76098;SDS011;64828;49.956;8.636;2023-02-26T00:35:03;4.10;;;2.53;;
76098;SDS011;64828;49.956;8.636;2023-02-26T00:35:21;4.60;;;2.60;;
76098;SDS011;64828;49.956;8.636;2023-02-26T00:35:37;4.65;;;2.65;;
76098;SDS011;64828;49.956;8.636;2023-02-26T00:35:55;3.83;;;2.53;;
76098;SDS011;64828;49.956;8.636;2023-02-26T00:36:44;4.68;;;2.50;;
76098;SDS011;64828;49.956;8.636;2023-02-26T00:37:34;5.28;;;2.50;;
76098;SDS011;64828;49.956;8.636;2023-02-26T00:38:14;5.25;;;2.60;;
76098;SDS011;64828;49.956;8.636;2023-02-26T00:38:32;5.88;;;2.60;;
76098;SDS011;64828;49.956;8.636;2023-02-26T00:38:56;5.70;;;2.40;;
76098;SDS011;64828;49.956;8.636;2023-02-26T00:40:03;3.83;;;2.63;;
76098;SDS011;64828;49.956;8.636;2023-02-26T00:41:02;4.85;;;2.60;;
76098;SDS011;64828;49.956;8.636;2023-02-26T00:41:18;4.47;;;2.65;;
76098;SDS011;64828;49.956;8.636;2023-02-26T00:41:34;3.75;;;2.60;;
76098;SDS011;64828;49.956;8.636;2023-02-26T00:41:50;4.68;;;2.58;;
76098;SDS011;64828;49.956;8.636;2023-02-26T00:42:06;5.40;;;2.65;;
76098;SDS011;64828;49.956;8.636;2023-02-26T00:42:22;4.75;;;2.42;;
76098;SDS011;64828;49.956;8.636;2023-02-26T00:42:38;4.38;;;2.50;;
76098;SDS011;64828;49.956;8.636;2023-02-26T00:42:54;4.57;;;2.80;;
76098;SDS011;64828;49.956;8.636;2023-02-26T00:43:18;5.20;;;2.72;;
76098;SDS011;64828;49.956;8.636;2023-02-26T00:43:38;6.20;;;2.80;;
76098;SDS011;64828;49.956;8.636;2023-02-26T00:43:54;5.25;;;2.70;;
76098;SDS011;64828;49.956;8.636;2023-02-26T00:44:10;4.40;;;2.80;;
76098;SDS011;64828;49.956;8.636;2023-02-26T00:44:26;5.40;;;3.10;;
76098;SDS011;64828;49.956;8.636;2023-02-26T00:44:42;6.03;;;3.05;;
76098;SDS011;64828;49.956;8.636;2023-02-26T00:44:58;6.03;;;2.70;;
76098;SDS011;64828;49.956;8.636;2023-02-26T00:45:14;5.45;;;2.88;;
76098;SDS011;64828;49.956;8.636;2023-02-26T00:45:30;4.82;;;2.92;;
76098;SDS011;64828;49.956;8.636;2023-02-26T00:45:59;5.32;;;2.80;;
76098;SDS011;64828;49.956;8.636;2023-02-26T00:46:43;5.22;;;2.75;;
76098;SDS011;64828;49.956;8.636;2023-02-26T00:48:43;6.28;;;2.90;;
76098;SDS011;64828;49.956;8.636;2023-02-26T00:49:22;5.70;;;3.00;;
76098;SDS011;64828;49.956;8.636;2023-02-26T00:50:17;5.28;;;2.95;;
76098;SDS011;64828;49.956;8.636;2023-02-26T00:50:46;6.68;;;3.10;;
76098;SDS011;64828;49.956;8.636;2023-02-26T00:52:00;4.93;;;3.25;;
76098;SDS011;64828;49.956;8.636;2023-02-26T00:52:22;5.32;;;3.15;;
76098;SDS011;64828;49.956;8.636;2023-02-26T00:53:30;6.93;;;2.90;;
76098;SDS011;64828;49.956;8.636;2023-02-26T00:54:18;5.20;;;2.88;;
76098;SDS011;64828;49.956;8.636;2023-02-26T00:54:38;5.72;;;3.10;;
76098;SDS011;64828;49.956;8.636;2023-02-26T00:54:53;5.03;;;3.10;;
76098;SDS011;64828;49.956;8.636;2023-02-26T00:55:09;6.07;;;3.03;;
76098;SDS011;64828;49.956;8.636;2023-02-26T00:55:25;7.05;;;3.10;;
76098;SDS011;64828;49.956;8.636;2023-02-26T00:55:40;5.53;;;3.10;;
76098;SDS011;64828;49.956;8.636;2023-02-26T00:55:56;6.75;;;2.83;;
76098;SDS011;64828;49.956;8.636;2023-02-26T00:56:12;6.72;;;2.90;;
76098;SDS011;64828;49.956;8.636;2023-02-26T00:56:28;4.90;;;3.17;;
76098;SDS011;64828;49.956;8.636;2023-02-26T00:56:45;5.00;;;3.17;;
76098;SDS011;64828;49.956;8.636;2023-02-26T00:57:02;6.95;;;3.65;;
76098;SDS011;64828;49.956;8.636;2023-02-26T00:57:19;5.90;;;3.00;;
76098;SDS011;64828;49.956;8.636;2023-02-26T00:57:35;6.13;;;2.90;;
76098;SDS011;64828;49.956;8.636;2023-02-26T00:57:51;7.40;;;3.20;;
76098;SDS011;64828;49.956;8.636;2023-02-26T00:58:06;6.43;;;3.10;;
76098;SDS011;64828;49.956;8.636;2023-02-26T00:58:22;4.23;;;3.00;;
76098;SDS011;64828;49.956;8.636;2023-02-26T00:58:38;5.30;;;3.10;;
76098;SDS011;64828;49.956;8.636;2023-02-26T00:58:53;7.33;;;3.13;;
76098;SDS011;64828;49.956;8.636;2023-02-26T00:59:09;6.73;;;3.30;;
76098;SDS011;64828;49.956;8.636;2023-02-26T00:59:24;5.90;;;3.13;;
76098;SDS011;64828;49.956;8.636;2023-02-26T00:59:40;5.77;;;3.00;;
76098;SDS011;64828;49.956;8.636;2023-02-26T00:59:56;5.93;;;3.17;;
76098;SDS011;64828;49.956;8.636;2023-02-26T01:00:11;6.50;;;3.35;;
76098;SDS011;64828;49.956;8.636;2023-02-26T01:00:28;6.35;;;3.50;;
76098;SDS011;64828;49.956;8.636;2023-02-26T01:00:44;5.85;;;3.10;;
76098;SDS011;64828;49.956;8.636;2023-02-26T01:01:00;6.15;;;2.90;;
76098;SDS011;64828;49.956;8.636;2023-02-26T01:01:16;5.50;;;3.10;;
76098;SDS011;64828;49.956;8.636;2023-02-26T01:01:31;4.68;;;3.28;;
76098;SDS011;64828;49.956;8.636;2023-02-26T01:01:47;5.93;;;3.20;;
76098;SDS011;64828;49.956;8.636;2023-02-26T01:02:04;6.30;;;3.00;;
76098;SDS011;64828;49.956;8.636;2023-02-26T01:02:20;5.33;;;3.20;;
76098;SDS011;64828;49.956;8.636;2023-02-26T01:02:36;6.05;;;3.13;;
76098;SDS011;64828;49.956;8.636;2023-02-26T01:02:53;6.50;;;2.95;;
76098;SDS011;64828;49.956;8.636;2023-02-26T01:03:09;5.85;;;3.05;;
76098;SDS011;64828;49.956;8.636;2023-02-26T01:03:26;6.53;;;3.15;;
76098;SDS011;64828;49.956;8.636;2023-02-26T01:03:42;6.15;;;3.08;;
76098;SDS011;64828;49.956;8.636;2023-02-26T01:03:57;5.20;;;2.85;;
76098;SDS011;64828;49.956;8.636;2023-02-26T01:04:15;4.30;;;2.78;;
76098;SDS011;64828;49.956;8.636;2023-02-26T01:04:34;3.88;;;2.65;;
76098;SDS011;64828;49.956;8.636;2023-02-26T01:04:50;4.47;;;2.53;;
76098;SDS011;64828;49.956;8.636;2023-02-26T01:05:07;5.30;;;2.92;;
76098;SDS011;64828;49.956;8.636;2023-02-26T01:05:24;5.53;;;2.90;;
76098;SDS011;64828;49.956;8.636;2023-02-26T01:05:40;6.30;;;3.10;;
76098;SDS011;64828;49.956;8.636;2023-02-26T01:05:55;5.68;;;3.30;;
76098;SDS011;64828;49.956;8.636;2023-02-26T01:06:14;5.18;;;3.30;;
76098;SDS011;64828;49.956;8.636;2023-02-26T01:06:37;5.28;;;2.88;;
76098;SDS011;64828;49.956;8.636;2023-02-26T01:07:04;5.93;;;3.35;;
76098;SDS011;64828;49.956;8.636;2023-02-26T01:07:24;5.35;;;2.92;;
76098;SDS011;64828;49.956;8.636;2023-02-26T01:07:51;5.85;;;3.00;;
76098;SDS011;64828;49.956;8.636;2023-02-26T01:08:28;4.50;;;3.00;;
76098;SDS011;64828;49.956;8.636;2023-02-26T01:09:48;5.93;;;3.10;;
76098;SDS011;64828;49.956;8.636;2023-02-26T01:10:04;5.25;;;3.08;;
76098;SDS011;64828;49.956;8.636;2023-02-26T01:10:20;5.13;;;2.97;;
76098;SDS011;64828;49.956;8.636;2023-02-26T01:10:37;4.60;;;2.80;;
76098;SDS011;64828;49.956;8.636;2023-02-26T01:10:53;4.43;;;2.85;;
76098;SDS011;64828;49.956;8.636;2023-02-26T01:11:09;4.90;;;3.10;;
76098;SDS011;64828;49.956;8.636;2023-02-26T01:11:25;4.75;;;3.05;;
76098;SDS011;64828;49.956;8.636;2023-02-26T01:11:41;5.60;;;2.92;;
76098;SDS011;64828;49.956;8.636;2023-02-26T01:11:58;6.47;;;3.13;;
76098;SDS011;64828;49.956;8.636;2023-02-26T01:12:18;4.75;;;2.88;;
76098;SDS011;64828;49.956;8.636;2023-02-26T01:12:34;4.03;;;2.60;;
76098;SDS011;64828;49.956;8.636;2023-02-26T01:12:51;4.90;;;2.83;;
76098;SDS011;64828;49.956;8.636;2023-02-26T01:13:07;6.20;;;3.08;;
76098;SDS011;64828;49.956;8.636;2023-02-26T01:13:23;7.55;;;2.90;;
76098;SDS011;64828;49.956;8.636;2023-02-26T01:13:39;6.78;;;2.90;;
76098;SDS011;64828;49.956;8.636;2023-02-26T01:13:55;5.13;;;3.03;;
76098;SDS011;64828;49.956;8.636;2023-02-26T01:14:11;4.22;;;2.90;;
76098;SDS011;64828;49.956;8.636;2023-02-26T01:14:28;4.95;;;2.80;;
76098;SDS011;64828;49.956;8.636;2023-02-26T01:14:46;5.43;;;3.00;;
76098;SDS011;64828;49.956;8.636;2023-02-26T01:15:04;4.38;;;2.70;;
76098;SDS011;64828;49.956;8.636;2023-02-26T01:15:22;5.00;;;2.58;;
76098;SDS011;64828;49.956;8.636;2023-02-26T01:15:39;4.80;;;2.90;;
76098;SDS011;64828;49.956;8.636;2023-02-26T01:16:07;5.30;;;3.03;;
76098;SDS011;64828;49.956;8.636;2023-02-26T01:16:32;5.10;;;2.80;;
76098;SDS011;64828;49.956;8.636;2023-02-26T01:17:15;6.32;;;2.80;;
76098;SDS011;64828;49.956;8.636;2023-02-26T01:17:53;5.30;;;2.80;;
76098;SDS011;64828;49.956;8.636;2023-02-26T01:18:27;4.75;;;2.95;;
76098;SDS011;64828;49.956;8.636;2023-02-26T01:19:01;5.35;;;2.70;;
76098;SDS011;64828;49.956;8.636;2023-02-26T01:20:08;5.80;;;3.00;;
76098;SDS011;64828;49.956;8.636;2023-02-26T01:20:36;5.95;;;2.60;;
76098;SDS011;64828;49.956;8.636;2023-02-26T01:21:02;4.32;;;2.53;;
76098;SDS011;64828;49.956;8.636;2023-02-26T01:21:28;4.03;;;2.60;;
76098;SDS011;64828;49.956;8.636;2023-02-26T01:21:52;5.57;;;3.60;;
76098;SDS011;64828;49.956;8.636;2023-02-26T01:22:33;5.32;;;2.80;;
76098;SDS011;64828;49.956;8.636;2023-02-26T01:23:02;5.78;;;2.90;;
76098;SDS011;64828;49.956;8.636;2023-02-26T01:23:26;5.85;;;2.83;;
76098;SDS011;64828;49.956;8.636;2023-02-26T01:23:49;4.03;;;2.72;;
76098;SDS011;64828;49.956;8.636;2023-02-26T01:24:07;3.90;;;2.85;;
76098;SDS011;64828;49.956;8.636;2023-02-26T01:24:30;5.20;;;2.92;;
76098;SDS011;64828;49.956;8.636;2023-02-26T01:24:53;5.05;;;3.00;;
76098;SDS011;64828;49.956;8.636;2023-02-26T01:25:34;6.43;;;2.88;;
76098;SDS011;64828;49.956;8.636;2023-02-26T01:25:58;4.57;;;3.00;;
76098;SDS011;64828;49.956;8.636;2023-02-26T01:26:27;5.50;;;2.83;;
76098;SDS011;64828;49.956;8.636;2023-02-26T01:26:43;6.25;;;2.90;;
76098;SDS011;64828;49.956;8.636;2023-02-26T01:26:59;5.20;;;2.73;;
76098;SDS011;64828;49.956;8.636;2023-02-26T01:27:14;5.72;;;2.72;;
76098;SDS011;64828;49.956;8.636;2023-02-26T01:27:30;5.38;;;2.72;;
76098;SDS011;64828;49.956;8.636;2023-02-26T01:27:46;4.68;;;2.70;;
76098;SDS011;64828;49.956;8.636;2023-02-26T01:28:02;4.80;;;2.70;;
76098;SDS011;64828;49.956;8.636;2023-02-26T01:28:18;4.80;;;2.63;;
76098;SDS011;64828;49.956;8.636;2023-02-26T01:28:35;4.82;;;2.63;;
76098;SDS011;64828;49.956;8.636;2023-02-26T01:28:51;5.93;;;3.00;;
76098;SDS011;64828;49.956;8.636;2023-02-26T01:29:08;5.78;;;2.90;;
76098;SDS011;64828;49.956;8.636;2023-02-26T01:29:25;6.90;;;2.92;;
76098;SDS011;64828;49.956;8.636;2023-02-26T01:29:40;7.53;;;3.17;;
76098;SDS011;64828;49.956;8.636;2023-02-26T01:29:56;5.50;;;2.97;;
76098;SDS011;64828;49.956;8.636;2023-02-26T01:30:12;5.55;;;3.10;;
76098;SDS011;64828;49.956;8.636;2023-02-26T01:30:29;6.05;;;3.00;;
76098;SDS011;64828;49.956;8.636;2023-02-26T01:30:45;7.75;;;3.15;;
76098;SDS011;64828;49.956;8.636;2023-02-26T01:31:02;6.82;;;3.25;;
76098;SDS011;64828;49.956;8.636;2023-02-26T01:31:39;4.80;;;2.90;;
76098;SDS011;64828;49.956;8.636;2023-02-26T01:32:10;4.85;;;2.80;;
76098;SDS011;64828;49.956;8.636;2023-02-26T01:33:08;5.32;;;2.70;;
76098;SDS011;64828;49.956;8.636;2023-02-26T01:33:46;4.13;;;2.88;;
76098;SDS011;64828;49.956;8.636;2023-02-26T01:34:18;3.83;;;2.78;;
76098;SDS011;64828;49.956;8.636;2023-02-26T01:34:54;5.18;;;3.10;;
76098;SDS011;64828;49.956;8.636;2023-02-26T01:36:06;6.32;;;2.90;;
76098;SDS011;64828;49.956;8.636;2023-02-26T01:36:39;4.40;;;2.97;;
76098;SDS011;64828;49.956;8.636;2023-02-26T01:37:13;5.30;;;2.95;;
76098;SDS011;64828;49.956;8.636;2023-02-26T01:38:06;5.20;;;3.00;;
76098;SDS011;64828;49.956;8.636;2023-02-26T01:39:13;5.68;;;3.38;;
76098;SDS011;64828;49.956;8.636;2023-02-26T01:39:44;4.90;;;3.30;;
76098;SDS011;64828;49.956;8.636;2023-02-26T01:41:42;5.20;;;2.95;;
76098;SDS011;64828;49.956;8.636;2023-02-26T01:42:11;4.53;;;3.10;;
76098;SDS011;64828;49.956;8.636;2023-02-26T01:42:29;5.32;;;2.88;;
76098;SDS011;64828;49.956;8.636;2023-02-26T01:42:51;6.50;;;3.00;;
76098;SDS011;64828;49.956;8.636;2023-02-26T01:43:21;3.83;;;2.70;;
76098;SDS011;64828;49.956;8.636;2023-02-26T01:45:19;4.53;;;2.90;;
76098;SDS011;64828;49.956;8.636;2023-02-26T01:45:52;4.38;;;2.80;;
76098;SDS011;64828;49.956;8.636;2023-02-26T01:48:12;5.47;;;3.05;;
76098;SDS011;64828;49.956;8.636;2023-02-26T01:48:51;6.07;;;2.90;;
76098;SDS011;64828;49.956;8.636;2023-02-26T01:49:12;5.60;;;2.78;;
76098;SDS011;64828;49.956;8.636;2023-02-26T01:49:31;6.40;;;3.38;;
76098;SDS011;64828;49.956;8.636;2023-02-26T01:49:48;6.22;;;3.30;;
76098;SDS011;64828;49.956;8.636;2023-02-26T01:50:50;4.32;;;2.88;;
76098;SDS011;64828;49.956;8.636;2023-02-26T01:51:05;4.30;;;2.70;;
76098;SDS011;64828;49.956;8.636;2023-02-26T01:51:41;5.15;;;2.75;;
76098;SDS011;64828;49.956;8.636;2023-02-26T01:53:38;4.63;;;2.90;;
76098;SDS011;64828;49.956;8.636;2023-02-26T01:53:53;5.87;;;3.00;;
76098;SDS011;64828;49.956;8.636;2023-02-26T01:54:09;5.28;;;2.85;;
76098;SDS011;64828;49.956;8.636;2023-02-26T01:54:30;5.28;;;2.80;;
76098;SDS011;64828;49.956;8.636;2023-02-26T01:54:52;5.57;;;2.92;;
76098;SDS011;64828;49.956;8.636;2023-02-26T01:55:07;5.73;;;3.00;;
76098;SDS011;64828;49.956;8.636;2023-02-26T01:55:23;5.95;;;3.15;;
76098;SDS011;64828;49.956;8.636;2023-02-26T01:55:43;4.90;;;3.05;;
76098;SDS011;64828;49.956;8.636;2023-02-26T01:56:17;5.75;;;3.00;;
76098;SDS011;64828;49.956;8.636;2023-02-26T01:56:33;4.85;;;2.80;;
76098;SDS011;64828;49.956;8.636;2023-02-26T01:57:10;5.05;;;2.88;;
76098;SDS011;64828;49.956;8.636;2023-02-26T01:57:31;6.80;;;3.05;;
76098;SDS011;64828;49.956;8.636;2023-02-26T01:57:47;5.07;;;2.78;;
76098;SDS011;64828;49.956;8.636;2023-02-26T01:58:06;5.60;;;2.92;;
76098;SDS011;64828;49.956;8.636;2023-02-26T01:58:22;5.30;;;2.90;;
76098;SDS011;64828;49.956;8.636;2023-02-26T01:58:41;5.82;;;3.13;;
76098;SDS011;64828;49.956;8.636;2023-02-26T01:59:02;6.15;;;3.05;;
76098;SDS011;64828;49.956;8.636;2023-02-26T01:59:19;5.18;;;2.90;;
76098;SDS011;64828;49.956;8.636;2023-02-26T01:59:40;4.55;;;2.85;;
76098;SDS011;64828;49.956;8.636;2023-02-26T02:00:00;5.50;;;2.80;;
76098;SDS011;64828;49.956;8.636;2023-02-26T02:00:16;5.30;;;2.90;;
76098;SDS011;64828;49.956;8.636;2023-02-26T02:00:33;4.72;;;2.78;;
76098;SDS011;64828;49.956;8.636;2023-02-26T02:00:48;5.55;;;3.00;;
76098;SDS011;64828;49.956;8.636;2023-02-26T02:01:05;5.15;;;2.88;;
76098;SDS011;64828;49.956;8.636;2023-02-26T02:01:22;4.57;;;2.60;;
76098;SDS011;64828;49.956;8.636;2023-02-26T02:01:37;4.03;;;2.60;;
76098;SDS011;64828;49.956;8.636;2023-02-26T02:01:55;3.63;;;2.45;;
76098;SDS011;64828;49.956;8.636;2023-02-26T02:02:15;4.38;;;2.70;;
76098;SDS011;64828;49.956;8.636;2023-02-26T02:02:36;4.15;;;2.80;;
76098;SDS011;64828;49.956;8.636;2023-02-26T02:02:52;4.53;;;2.80;;
76098;SDS011;64828;49.956;8.636;2023-02-26T02:03:08;5.05;;;3.00;;
76098;SDS011;64828;49.956;8.636;2023-02-26T02:03:25;4.53;;;3.13;;
76098;SDS011;64828;49.956;8.636;2023-02-26T02:03:44;4.07;;;2.90;;
76098;SDS011;64828;49.956;8.636;2023-02-26T02:04:00;4.35;;;2.70;;
76098;SDS011;64828;49.956;8.636;2023-02-26T02:04:17;4.45;;;2.70;;
76098;SDS011;64828;49.956;8.636;2023-02-26T02:04:34;4.93;;;2.92;;
76098;SDS011;64828;49.956;8.636;2023-02-26T02:04:51;5.32;;;3.10;;
76098;SDS011;64828;49.956;8.636;2023-02-26T02:06:07;4.20;;;2.90;;
76098;SDS011;64828;49.956;8.636;2023-02-26T02:06:31;4.53;;;2.90;;
76098;SDS011;64828;49.956;8.636;2023-02-26T02:06:48;4.07;;;2.80;;
76098;SDS011;64828;49.956;8.636;2023-02-26T02:07:04;4.35;;;2.60;;
76098;SDS011;64828;49.956;8.636;2023-02-26T02:07:20;4.50;;;2.80;;
76098;SDS011;64828;49.956;8.636;2023-02-26T02:07:36;4.93;;;2.92;;
76098;SDS011;64828;49.956;8.636;2023-02-26T02:07:52;6.10;;;3.20;;
76098;SDS011;64828;49.956;8.636;2023-02-26T02:08:08;5.88;;;3.35;;
76098;SDS011;64828;49.956;8.636;2023-02-26T02:08:25;4.72;;;3.05;;
76098;SDS011;64828;49.956;8.636;2023-02-26T02:08:41;5.60;;;2.80;;
76098;SDS011;64828;49.956;8.636;2023-02-26T02:08:57;6.82;;;2.95;;
76098;SDS011;64828;49.956;8.636;2023-02-26T02:09:12;6.53;;;3.03;;
76098;SDS011;64828;49.956;8.636;2023-02-26T02:09:28;5.47;;;3.03;;
76098;SDS011;64828;49.956;8.636;2023-02-26T02:09:44;4.30;;;2.90;;
76098;SDS011;64828;49.956;8.636;2023-02-26T02:10:01;4.50;;;3.00;;
76098;SDS011;64828;49.956;8.636;2023-02-26T02:10:18;4.38;;;2.95;;
76098;SDS011;64828;49.956;8.636;2023-02-26T02:10:34;5.80;;;2.92;;
76098;SDS011;64828;49.956;8.636;2023-02-26T02:10:49;6.22;;;3.25;;
76098;SDS011;64828;49.956;8.636;2023-02-26T02:11:08;5.68;;;3.30;;
76098;SDS011;64828;49.956;8.636;2023-02-26T02:11:25;5.28;;;3.30;;
76098;SDS011;64828;49.956;8.636;2023-02-26T02:11:47;5.88;;;3.30;;
76098;SDS011;64828;49.956;8.636;2023-02-26T02:12:56;6.07;;;3.00;;
76098;SDS011;64828;49.956;8.636;2023-02-26T02:15:06;5.43;;;3.35;;
76098;SDS011;64828;49.956;8.636;2023-02-26T02:15:53;5.72;;;3.30;;
76098;SDS011;64828;49.956;8.636;2023-02-26T02:16:47;7.38;;;3.22;;
76098;SDS011;64828;49.956;8.636;2023-02-26T02:17:48;6.32;;;3.58;;
76098;SDS011;64828;49.956;8.636;2023-02-26T02:20:51;6.47;;;3.40;;
76098;SDS011;64828;49.956;8.636;2023-02-26T02:21:46;5.43;;;3.30;;
76098;SDS011;64828;49.956;8.636;2023-02-26T02:23:42;5.93;;;3.22;;